Time;durP1;ratioP1;P1;durP2;ratioP2;P2;SDS_P1;SDS_P2;PMS_P1;PMS_P2;Temp;Humidity;BMP_temperature;BMP_pressure;BME280_temperature;BME280_humidity;BME280_pressure;Samples;Min_cycle;Max_cycle;Signal;HPM_P1;HPM_P2
2021/04/09 00:01:41;;;;;;;31.02;16.48;;;;;;;-0.39;80.67;99905.81;3550976;27;20499;-51
2021/04/09 00:03:22;;;;;;;28.05;15.88;;;;;;;-0.38;80.72;99909.22;3554142;27;20047;-53
2021/04/09 00:05:07;;;;;;;26.80;15.25;;;;;;;-0.40;80.68;99914.22;3551685;27;20070;-46
2021/04/09 00:06:48;;;;;;;27.50;14.35;;;;;;;-0.42;79.93;99913.25;3554492;27;20043;-50
2021/04/09 00:08:33;;;;;;;34.58;15.32;;;;;;;-0.45;80.20;99917.28;3554352;27;20059;-53
2021/04/09 00:10:16;;;;;;;32.58;14.73;;;;;;;-0.47;80.30;99908.66;3551087;27;20415;-53
2021/04/09 00:11:58;;;;;;;26.02;14.07;;;;;;;-0.48;80.49;99909.44;3555243;27;20051;-45
2021/04/09 00:13:40;;;;;;;30.65;14.45;;;;;;;-0.49;80.98;99913.66;3550366;27;20046;-52
2021/04/09 00:15:22;;;;;;;28.98;14.93;;;;;;;-0.49;80.79;99921.31;3553775;27;20043;-45
2021/04/09 00:17:05;;;;;;;28.92;14.55;;;;;;;-0.49;80.99;99918.75;3552441;27;20050;-45
2021/04/09 00:18:46;;;;;;;31.67;16.38;;;;;;;-0.50;81.21;99916.13;3551136;27;20054;-45
2021/04/09 00:20:28;;;;;;;21.58;11.65;;;;;;;-0.50;80.74;99918.66;3553382;27;20642;-46
2021/04/09 00:22:09;;;;;;;29.88;14.45;;;;;;;-0.50;80.85;99919.56;3551986;27;20092;-46
2021/04/09 00:23:51;;;;;;;33.78;17.67;;;;;;;-0.47;81.30;99923.97;3554562;27;20050;-45
2021/04/09 00:25:33;;;;;;;29.38;15.52;;;;;;;-0.48;81.51;99923.09;3550888;27;20099;-45
2021/04/09 00:27:14;;;;;;;30.23;16.25;;;;;;;-0.48;81.62;99922.19;3553045;27;20103;-45
2021/04/09 00:28:55;;;;;;;31.50;16.25;;;;;;;-0.47;81.37;99929.06;3552215;27;20103;-45
2021/04/09 00:30:37;;;;;;;33.42;16.55;;;;;;;-0.48;81.69;99925.63;3552296;27;20054;-46
2021/04/09 00:32:19;;;;;;;32.55;16.05;;;;;;;-0.48;81.70;99940.91;3539768;27;20047;-46
2021/04/09 00:34:01;;;;;;;31.55;15.50;;;;;;;-0.47;81.50;99934.16;3546410;27;20176;-45
2021/04/09 00:35:43;;;;;;;31.40;16.92;;;;;;;-0.49;81.72;99941.69;3554315;27;20082;-45
2021/04/09 00:37:24;;;;;;;31.80;15.10;;;;;;;-0.48;81.94;99940.91;3552611;27;20514;-45
2021/04/09 00:39:08;;;;;;;29.17;14.93;;;;;;;-0.48;82.33;99942.56;3553205;27;20075;-46
2021/04/09 00:40:50;;;;;;;24.63;13.57;;;;;;;-0.48;82.38;99951.13;3552040;27;20057;-46
2021/04/09 00:42:32;;;;;;;26.83;14.15;;;;;;;-0.45;82.35;99943.63;3551949;27;20415;-53
2021/04/09 00:44:14;;;;;;;25.85;13.73;;;;;;;-0.43;82.46;99946.28;3554319;27;20090;-55
2021/04/09 00:45:55;;;;;;;26.00;14.98;;;;;;;-0.41;82.50;99949.78;3552824;27;20046;-50
2021/04/09 00:47:37;;;;;;;24.58;13.18;;;;;;;-0.39;82.39;99951.66;3554571;27;20146;-52
2021/04/09 00:49:19;;;;;;;24.45;13.52;;;;;;;-0.38;82.61;99953.44;3552695;27;20419;-53
2021/04/09 00:51:00;;;;;;;25.95;13.65;;;;;;;-0.37;82.51;99957.75;3552625;27;20050;-51
2021/04/09 00:52:44;;;;;;;25.20;13.50;;;;;;;-0.37;82.58;99952.66;3551568;27;20052;-53
2021/04/09 00:54:26;;;;;;;23.65;13.38;;;;;;;-0.36;82.25;99950.97;3553031;27;20047;-46
2021/04/09 00:56:08;;;;;;;25.00;14.70;;;;;;;-0.36;82.08;99953.50;3553857;27;20046;-46
2021/04/09 00:57:51;;;;;;;21.40;12.65;;;;;;;-0.37;82.08;99960.28;3552529;27;20504;-45
2021/04/09 00:59:34;;;;;;;21.05;11.73;;;;;;;-0.37;82.04;99954.31;3554014;27;20049;-45
2021/04/09 01:01:15;;;;;;;25.25;13.05;;;;;;;-0.39;81.94;99958.44;3550455;27;20526;-52
2021/04/09 01:02:58;;;;;;;24.02;13.60;;;;;;;-0.42;82.17;99958.25;3552193;27;20213;-51
2021/04/09 01:04:40;;;;;;;24.92;13.40;;;;;;;-0.42;82.47;99963.34;3552159;27;20042;-53
2021/04/09 01:06:22;;;;;;;25.55;14.35;;;;;;;-0.41;82.74;99960.00;3549784;27;20099;-53
2021/04/09 01:08:06;;;;;;;24.08;13.68;;;;;;;-0.42;82.76;99959.13;3539661;28;20088;-50
2021/04/09 01:09:54;;;;;;;24.17;13.35;;;;;;;-0.43;82.85;99967.56;3547812;27;20047;-53
2021/04/09 01:11:37;;;;;;;28.25;14.98;;;;;;;-0.43;82.90;99961.56;3553876;27;20054;-53
2021/04/09 01:13:18;;;;;;;25.80;13.07;;;;;;;-0.44;82.95;99962.38;3549188;27;20431;-53
2021/04/09 01:15:00;;;;;;;26.92;15.00;;;;;;;-0.46;82.84;99967.38;3551879;27;20062;-52
2021/04/09 01:16:47;;;;;;;27.08;14.25;;;;;;;-0.48;83.02;99968.94;3551345;27;20046;-52
2021/04/09 01:18:38;;;;;;;25.67;13.90;;;;;;;-0.50;82.96;99965.44;3551056;27;20047;-45
2021/04/09 01:20:30;;;;;;;23.83;13.55;;;;;;;-0.52;82.69;99964.44;3553877;27;20103;-45
2021/04/09 01:22:12;;;;;;;28.08;14.63;;;;;;;-0.54;82.96;99968.56;3550507;27;20419;-46
2021/04/09 01:24:15;;;;;;;29.67;15.68;;;;;;;-0.55;83.07;99971.91;3551962;27;20483;-52
2021/04/09 01:26:21;;;;;;;31.50;15.35;;;;;;;-0.58;83.01;99977.66;3549209;27;20059;-54
2021/04/09 01:28:12;;;;;;;34.60;16.05;;;;;;;-0.59;82.83;99969.94;3503399;27;20145;-53
2021/04/09 01:30:14;;;;;;;31.63;16.77;;;;;;;-0.61;83.02;99976.59;3550720;27;20043;-54
2021/04/09 01:31:58;;;;;;;31.42;16.35;;;;;;;-0.65;83.18;99975.53;3539588;28;20051;-54
2021/04/09 01:33:43;;;;;;;30.70;16.52;;;;;;;-0.66;83.28;99977.97;3549176;27;20047;-53
2021/04/09 01:35:26;;;;;;;30.00;16.02;;;;;;;-0.68;83.20;99979.53;3552879;27;20043;-54
2021/04/09 01:37:11;;;;;;;38.35;13.98;;;;;;;-0.68;83.42;99979.53;3551142;27;20175;-53
2021/04/09 01:38:57;;;;;;;21.80;11.85;;;;;;;-0.69;82.56;99980.31;3550354;27;20043;-46
2021/04/09 01:40:43;;;;;;;27.67;13.73;;;;;;;-0.69;83.21;99981.22;3553314;27;20054;-46
2021/04/09 01:42:26;;;;;;;20.30;12.30;;;;;;;-0.70;82.98;99979.44;3550733;27;20054;-52
2021/04/09 01:44:10;;;;;;;29.88;14.65;;;;;;;-0.68;83.83;99982.09;3553548;27;20057;-52
2021/04/09 01:45:52;;;;;;;;;;;;;;;-0.68;83.12;99984.66;3551543;27;20135;-54
2021/04/09 01:47:35;;;;;;;24.67;10.75;;;;;;;-0.69;83.00;99987.97;3553199;27;19934;-54
2021/04/09 01:49:19;;;;;;;25.15;13.18;;;;;;;-0.68;83.09;99984.66;3552072;27;20082;-51
2021/04/09 01:51:02;;;;;;;24.73;10.60;;;;;;;-0.68;82.82;99993.16;3550374;27;20069;-54
2021/04/09 01:52:46;;;;;;;22.25;11.63;;;;;;;-0.67;82.91;99991.50;3553970;27;20050;-46
2021/04/09 01:54:29;;;;;;;22.25;13.35;;;;;;;-0.67;83.37;99996.59;3549222;27;20054;-45
2021/04/09 01:56:13;;;;;;;21.83;11.73;;;;;;;-0.69;83.54;99999.06;3551084;27;20046;-46
2021/04/09 01:57:56;;;;;;;23.73;12.55;;;;;;;-0.71;83.78;99998.09;3552750;27;20049;-46
2021/04/09 01:59:40;;;;;;;20.30;11.27;;;;;;;-0.72;83.65;100011.59;3549625;27;20549;-46
2021/04/09 02:01:22;;;;;;;21.27;11.38;;;;;;;-0.74;83.58;100019.13;3553471;27;20476;-45
2021/04/09 02:03:06;;;;;;;24.92;12.98;;;;;;;-0.77;83.79;100008.72;3552357;27;20054;-45
2021/04/09 02:04:49;;;;;;;24.90;12.63;;;;;;;-0.79;84.05;100017.94;3552967;27;20042;-45
2021/04/09 02:06:31;;;;;;;27.10;13.57;;;;;;;-0.80;84.21;100020.38;3550819;27;20053;-45
2021/04/09 02:08:14;;;;;;;30.88;13.85;;;;;;;-0.80;84.57;100018.75;3549991;27;20488;-53
2021/04/09 02:09:57;;;;;;;24.75;13.05;;;;;;;-0.81;84.49;100026.28;3553320;27;20053;-53
2021/04/09 02:11:40;;;;;;;22.13;11.85;;;;;;;-0.82;84.40;100022.84;3549570;27;20043;-53
2021/04/09 02:13:22;;;;;;;26.33;13.30;;;;;;;-0.82;84.66;100025.38;3551835;27;20503;-46
2021/04/09 02:15:07;;;;;;;26.52;13.27;;;;;;;-0.84;84.56;100026.94;3550909;27;20612;-46
2021/04/09 02:16:50;;;;;;;24.63;12.95;;;;;;;-0.85;84.66;100021.75;3550992;27;20089;-45
2021/04/09 02:18:32;;;;;;;25.42;13.88;;;;;;;-0.84;85.04;100034.59;3554587;27;20507;-46
2021/04/09 02:20:15;;;;;;;26.67;13.63;;;;;;;-0.85;85.00;100026.84;3550352;27;20042;-46
2021/04/09 02:21:57;;;;;;;27.20;13.18;;;;;;;-0.86;84.80;100036.16;3552713;27;20053;-53
2021/04/09 02:23:39;;;;;;;26.75;14.15;;;;;;;-0.88;85.05;100030.09;3550647;27;20043;-55
2021/04/09 02:25:22;;;;;;;29.13;14.35;;;;;;;-0.89;84.92;100023.22;3553015;27;20426;-54
2021/04/09 02:27:04;;;;;;;25.63;13.25;;;;;;;-0.91;84.96;100032.44;3548519;27;20047;-55
2021/04/09 02:28:46;;;;;;;23.13;12.77;;;;;;;-0.94;85.29;100025.50;3551103;27;20087;-54
2021/04/09 02:30:28;;;;;;;23.83;12.85;;;;;;;-0.94;85.28;100027.13;3551734;27;20054;-53
2021/04/09 02:32:10;;;;;;;25.23;12.75;;;;;;;-0.95;85.01;100023.72;3552590;27;20046;-54
2021/04/09 02:33:52;;;;;;;25.55;13.07;;;;;;;-0.94;85.53;100032.22;3538823;28;20107;-53
2021/04/09 02:35:34;;;;;;;29.42;14.45;;;;;;;-0.97;85.38;100034.59;3546124;27;20050;-45
2021/04/09 02:37:17;;;;;;;25.05;13.13;;;;;;;-0.99;85.40;100036.16;3552786;27;20503;-46
2021/04/09 02:39:03;;;;;;;27.92;14.32;;;;;;;-1.03;84.96;100039.28;3548968;27;20050;-45
2021/04/09 02:40:45;;;;;;;25.88;14.73;;;;;;;-1.08;85.07;100044.09;3551543;27;20050;-45
2021/04/09 02:42:28;;;;;;;27.55;15.25;;;;;;;-1.12;85.42;100043.00;3552733;27;20058;-45
2021/04/09 02:44:10;;;;;;;25.92;13.88;;;;;;;-1.14;85.52;100044.53;3551586;27;20046;-46
2021/04/09 02:45:54;;;;;;;28.30;14.10;;;;;;;-1.15;85.49;100047.88;3553275;27;20136;-46
2021/04/09 02:47:38;;;;;;;28.17;14.50;;;;;;;-1.16;85.87;100051.19;3549250;27;20047;-45
2021/04/09 02:49:25;;;;;;;;;;;;;;;-1.19;85.88;100051.00;3552438;27;20054;-44
2021/04/09 02:51:10;;;;;;;25.42;13.57;;;;;;;-1.19;85.89;100062.84;3550308;27;20418;-45
2021/04/09 02:52:56;;;;;;;29.77;16.27;;;;;;;-1.19;86.04;100058.66;3550153;27;20043;-44
2021/04/09 02:54:38;;;;;;;31.83;15.00;;;;;;;-1.20;86.10;100061.09;3552856;27;20062;-44
2021/04/09 02:56:23;;;;;;;26.77;14.88;;;;;;;-1.21;86.34;100061.84;3551217;27;20522;-45
2021/04/09 02:58:05;;;;;;;;;;;;;;;-1.21;86.22;100062.72;3552588;27;20050;-45
2021/04/09 02:59:49;;;;;;;34.65;16.40;;;;;;;-1.21;86.47;100066.94;3549684;27;20412;-45
2021/04/09 03:01:32;;;;;;;26.33;14.27;;;;;;;-1.19;86.62;100067.94;3550045;27;20055;-46
2021/04/09 03:03:17;;;;;;;28.13;15.77;;;;;;;-1.19;86.50;100076.47;3552297;27;20431;-45
2021/04/09 03:05:00;;;;;;;32.70;16.10;;;;;;;-1.18;86.34;100078.22;3549252;27;20072;-46
2021/04/09 03:06:43;;;;;;;34.13;17.58;;;;;;;-1.19;86.54;100083.19;3552727;27;20054;-45
2021/04/09 03:08:25;;;;;;;25.60;13.27;;;;;;;-1.20;86.43;100084.00;3549471;27;20107;-54
2021/04/09 03:10:09;;;;;;;22.38;12.45;;;;;;;-1.21;86.57;100083.09;3551691;27;20514;-45
2021/04/09 03:11:50;;;;;;;29.23;15.27;;;;;;;-1.19;86.65;100085.75;3551879;27;20054;-45
2021/04/09 03:13:33;;;;;;;27.40;14.25;;;;;;;-1.20;86.53;100086.53;3547825;27;20043;-44
2021/04/09 03:15:17;;;;;;;26.65;12.75;;;;;;;-1.19;86.43;100088.28;3551525;27;20083;-44
2021/04/09 03:17:05;;;;;;;20.55;10.73;;;;;;;-1.18;86.53;100090.06;3548796;27;20043;-45
2021/04/09 03:18:47;;;;;;;30.00;14.23;;;;;;;-1.16;86.86;100091.91;3552240;27;20091;-45
2021/04/09 03:20:30;;;;;;;30.38;14.85;;;;;;;-1.16;86.88;100097.00;3548232;27;20046;-46
2021/04/09 03:22:12;;;;;;;30.50;14.05;;;;;;;-1.15;86.84;100103.00;3551317;27;20447;-45
2021/04/09 03:23:53;;;;;;;32.58;15.00;;;;;;;-1.16;87.38;100097.00;3552451;27;20050;-45
2021/04/09 03:25:35;;;;;;;32.45;16.15;;;;;;;-1.14;87.09;100108.19;3548850;27;20047;-44
2021/04/09 03:27:17;;;;;;;30.60;15.82;;;;;;;-1.13;87.48;100104.88;3552275;27;20062;-45
2021/04/09 03:28:59;;;;;;;32.45;16.30;;;;;;;-1.12;87.46;100111.72;3548120;27;20055;-44
2021/04/09 03:30:40;;;;;;;34.97;16.13;;;;;;;-1.10;87.78;100115.25;3551874;27;20050;-45
2021/04/09 03:32:21;;;;;;;35.33;16.33;;;;;;;-1.07;87.79;100113.69;3551359;27;20043;-44
2021/04/09 03:34:04;;;;;;;32.20;16.08;;;;;;;-1.05;87.92;100118.09;3550447;27;20419;-45
2021/04/09 03:35:46;;;;;;;30.50;15.57;;;;;;;-1.03;87.88;100121.66;3553156;27;20503;-44
2021/04/09 03:37:27;;;;;;;30.83;15.40;;;;;;;-1.02;88.07;100122.53;3551132;27;20060;-45
2021/04/09 03:39:09;;;;;;;30.25;16.13;;;;;;;-1.00;87.93;100128.59;3552247;27;20076;-45
2021/04/09 03:40:50;;;;;;;32.88;15.55;;;;;;;-0.99;88.08;100127.84;3548753;27;20042;-45
2021/04/09 03:42:33;;;;;;;29.15;14.88;;;;;;;-0.98;88.07;100132.13;3551664;27;20074;-44
2021/04/09 03:44:14;;;;;;;31.13;14.90;;;;;;;-0.97;87.87;100136.44;3549138;27;20503;-44
2021/04/09 03:45:56;;;;;;;24.98;13.38;;;;;;;-0.95;87.60;100142.53;3550275;27;20043;-53
2021/04/09 03:47:38;;;;;;;24.85;13.60;;;;;;;-0.92;87.64;100143.59;3551261;27;20149;-54
2021/04/09 03:49:19;;;;;;;30.27;14.40;;;;;;;-0.87;87.71;100151.56;3551000;27;20053;-51
2021/04/09 03:51:01;;;;;;;32.78;15.70;;;;;;;-0.85;87.51;100139.81;3552432;27;20054;-51
2021/04/09 03:52:43;;;;;;;30.52;15.60;;;;;;;-0.83;87.71;100140.78;3551216;27;20046;-53
2021/04/09 03:54:24;;;;;;;34.78;16.42;;;;;;;-0.81;87.51;100144.31;3551598;27;20567;-53
2021/04/09 03:56:06;;;;;;;35.08;17.52;;;;;;;-0.80;87.76;100146.09;3548969;27;20423;-54
2021/04/09 03:57:47;;;;;;;31.67;15.95;;;;;;;-0.79;87.57;100141.88;3550165;27;20396;-44
2021/04/09 03:59:28;;;;;;;33.42;16.40;;;;;;;-0.78;87.60;100151.31;3550756;27;20101;-46
2021/04/09 04:01:10;;;;;;;33.95;18.25;;;;;;;-0.77;87.71;100150.50;3548276;27;20142;-47
2021/04/09 04:02:52;;;;;;;40.22;18.95;;;;;;;-0.76;87.79;100152.28;3552338;27;20070;-45
2021/04/09 04:04:33;;;;;;;35.50;18.20;;;;;;;-0.73;87.92;100161.00;3549754;27;20114;-45
2021/04/09 04:06:16;;;;;;;30.58;16.70;;;;;;;-0.68;87.93;100165.50;3551977;27;20054;-46
2021/04/09 04:07:58;;;;;;;33.42;16.67;;;;;;;-0.66;87.89;100166.50;3549020;27;20050;-45
2021/04/09 04:09:39;;;;;;;35.50;17.33;;;;;;;-0.63;87.79;100169.25;3550053;27;20039;-53
2021/04/09 04:11:20;;;;;;;38.35;18.10;;;;;;;-0.62;87.80;100165.94;3551678;27;20046;-54
2021/04/09 04:13:02;;;;;;;40.40;19.02;;;;;;;-0.62;87.79;100165.94;3546926;27;20515;-54
2021/04/09 04:14:43;;;;;;;38.47;19.52;;;;;;;-0.61;87.79;100171.09;3547777;27;20050;-54
2021/04/09 04:16:25;;;;;;;36.65;18.75;;;;;;;-0.59;87.70;100174.66;3550610;27;20518;-54
2021/04/09 04:18:06;;;;;;;45.60;21.35;;;;;;;-0.56;88.05;100179.06;3552115;27;20058;-53
2021/04/09 04:19:48;;;;;;;31.40;15.95;;;;;;;-0.53;88.06;100185.25;3550890;27;20047;-54
2021/04/09 04:21:30;;;;;;;38.85;20.10;;;;;;;-0.48;88.26;100188.09;3549804;27;20100;-54
2021/04/09 04:23:13;;;;;;;30.67;16.00;;;;;;;-0.43;88.09;100184.19;3550724;27;20043;-54
2021/04/09 04:24:54;;;;;;;31.63;15.00;;;;;;;-0.36;87.91;100185.44;3548425;27;20504;-55
2021/04/09 04:26:35;;;;;;;33.88;15.68;;;;;;;-0.27;88.12;100197.91;3552115;27;20047;-45
2021/04/09 04:28:17;;;;;;;29.25;13.88;;;;;;;-0.20;88.06;100193.34;3548368;27;20127;-45
2021/04/09 04:29:59;;;;;;;29.27;13.93;;;;;;;-0.10;87.73;100188.81;3551964;27;20388;-44
2021/04/09 04:31:40;;;;;;;34.20;17.13;;;;;;;-0.01;87.54;100192.81;3549917;27;20055;-55
2021/04/09 04:33:22;;;;;;;32.92;15.57;;;;;;;0.07;87.59;100195.03;3549629;27;20038;-55
2021/04/09 04:35:04;;;;;;;32.58;17.98;;;;;;;0.14;87.25;100187.84;3550436;27;20070;-55
2021/04/09 04:36:46;;;;;;;37.40;17.95;;;;;;;0.24;87.43;100196.94;3550453;27;20042;-56
2021/04/09 04:38:28;;;;;;;30.73;15.55;;;;;;;0.32;86.82;100203.41;3537796;28;20047;-56
2021/04/09 04:40:10;;;;;;;28.38;13.52;;;;;;;0.39;86.58;100199.59;3545971;27;20091;-56
2021/04/09 04:41:52;;;;;;;35.30;17.17;;;;;;;0.45;86.76;100197.41;3554643;27;20057;-57
2021/04/09 04:43:34;;;;;;;34.33;17.40;;;;;;;0.54;87.00;100200.56;3551037;27;20054;-58
2021/04/09 04:45:17;;;;;;;27.02;14.05;;;;;;;0.61;86.29;100206.91;3552010;27;20487;-59
2021/04/09 04:46:59;;;;;;;34.30;17.20;;;;;;;0.70;86.58;100214.25;3554048;27;20050;-59
2021/04/09 04:48:40;;;;;;;31.08;15.60;;;;;;;0.78;86.29;100206.25;3550497;27;20050;-59
2021/04/09 04:50:22;;;;;;;27.92;13.80;;;;;;;0.87;85.80;100215.28;3554261;27;20842;-60
2021/04/09 04:52:04;;;;;;;36.38;16.88;;;;;;;0.94;85.59;100209.75;3550541;27;20177;-60
2021/04/09 04:53:46;;;;;;;30.23;15.43;;;;;;;1.01;85.56;100219.56;3553488;27;20046;-59
2021/04/09 04:55:27;;;;;;;34.15;17.02;;;;;;;1.07;84.90;100214.84;3551087;27;20054;-60
2021/04/09 04:57:10;;;;;;;32.33;14.38;;;;;;;1.13;85.11;100216.88;3551897;27;20088;-59
2021/04/09 04:58:51;;;;;;;36.88;17.42;;;;;;;1.20;84.99;100225.78;3554737;27;20050;-53
2021/04/09 05:00:33;;;;;;;43.28;17.15;;;;;;;1.27;84.47;100225.38;3551578;27;20047;-49
2021/04/09 05:02:14;;;;;;;38.00;16.40;;;;;;;1.31;84.16;100227.31;3554011;27;20062;-49
2021/04/09 05:03:56;;;;;;;39.53;16.73;;;;;;;1.34;84.24;100222.38;3550541;27;20047;-49
2021/04/09 05:05:37;;;;;;;32.20;15.27;;;;;;;1.35;83.81;100226.69;3553598;27;20047;-48
2021/04/09 05:07:19;;;;;;;33.63;15.70;;;;;;;1.35;83.71;100226.69;3552190;27;20526;-50
2021/04/09 05:09:01;;;;;;;43.22;18.00;;;;;;;1.34;83.72;100233.47;3551772;27;20042;-49
2021/04/09 05:10:42;;;;;;;41.28;17.88;;;;;;;1.32;83.85;100232.50;3552818;27;20185;-59
2021/04/09 05:12:23;;;;;;;32.88;16.90;;;;;;;1.31;83.57;100235.84;3550270;27;20054;-59
2021/04/09 05:14:05;;;;;;;31.88;15.60;;;;;;;1.29;83.71;100234.88;3552370;27;20131;-59
2021/04/09 05:15:46;;;;;;;31.60;16.20;;;;;;;1.28;83.66;100240.78;3550328;27;20039;-59
2021/04/09 05:17:28;;;;;;;30.35;15.95;;;;;;;1.26;83.78;100239.78;3554078;27;20053;-59
2021/04/09 05:19:10;;;;;;;40.22;18.25;;;;;;;1.26;83.68;100239.78;3550777;27;20555;-59
2021/04/09 05:20:51;;;;;;;34.15;16.42;;;;;;;1.24;83.60;100246.50;3551750;27;20057;-59
2021/04/09 05:22:33;;;;;;;34.47;16.63;;;;;;;1.25;83.88;100247.38;3553606;27;20142;-58
2021/04/09 05:24:15;;;;;;;32.28;15.20;;;;;;;1.24;83.86;100250.72;3553564;27;20454;-59
2021/04/09 05:25:56;;;;;;;31.80;16.75;;;;;;;1.22;83.54;100247.22;3553958;27;20457;-59
2021/04/09 05:27:38;;;;;;;32.63;16.77;;;;;;;1.22;83.91;100248.09;3550091;27;20495;-59
2021/04/09 05:29:19;;;;;;;34.67;17.15;;;;;;;1.21;83.77;100251.41;3553760;27;20050;-58
2021/04/09 05:31:01;;;;;;;29.50;16.05;;;;;;;1.26;84.07;100251.69;3550344;27;20047;-58
2021/04/09 05:32:42;;;;;;;34.97;18.05;;;;;;;1.33;84.31;100254.69;3551916;27;20078;-58
2021/04/09 05:34:24;;;;;;;28.65;15.13;;;;;;;1.45;83.99;100253.69;3552087;27;20046;-59
2021/04/09 05:36:06;;;;;;;37.72;13.98;;;;;;;1.58;83.96;100253.59;3550234;27;20043;-58
2021/04/09 05:37:49;;;;;;;43.97;20.60;;;;;;;1.71;83.55;100256.09;3553621;27;20081;-58
2021/04/09 05:39:35;;;;;;;30.65;15.30;;;;;;;1.83;82.64;100260.16;3550320;27;20058;-58
2021/04/09 05:41:17;;;;;;;32.58;16.60;;;;;;;1.92;82.55;100259.03;3552877;27;20105;-57
2021/04/09 05:43:01;;;;;;;37.35;18.13;;;;;;;2.04;82.47;100258.84;3552331;27;20088;-58
2021/04/09 05:44:43;;;;;;;41.33;18.23;;;;;;;2.12;82.18;100260.16;3551393;27;20491;-58
2021/04/09 05:46:24;;;;;;;39.45;19.50;;;;;;;2.20;82.13;100258.03;3539331;28;20047;-58
2021/04/09 05:48:07;;;;;;;33.53;17.02;;;;;;;2.26;81.27;100267.75;3546563;27;20047;-57
2021/04/09 05:49:51;;;;;;;42.85;20.67;;;;;;;2.27;80.41;100259.25;3553643;27;20072;-57
2021/04/09 05:51:32;;;;;;;42.88;21.25;;;;;;;2.31;80.78;100266.31;3548622;27;20212;-57
2021/04/09 05:53:14;;;;;;;38.47;19.95;;;;;;;2.29;80.41;100261.13;3551419;27;20095;-57
2021/04/09 05:54:56;;;;;;;36.15;18.15;;;;;;;2.30;80.07;100267.09;3553326;27;20051;-57
2021/04/09 05:56:37;;;;;;;38.20;18.88;;;;;;;2.26;80.01;100268.63;3550851;27;20088;-57
2021/04/09 05:58:19;;;;;;;38.75;19.20;;;;;;;2.26;80.72;100276.28;3553160;27;20578;-57
2021/04/09 06:00:00;;;;;;;40.90;19.40;;;;;;;2.35;80.58;100270.81;3550031;27;20049;-57
2021/04/09 06:01:42;;;;;;;32.83;17.67;;;;;;;2.48;80.76;100269.81;3553534;27;20057;-57
2021/04/09 06:03:23;;;;;;;36.55;19.08;;;;;;;2.65;80.05;100275.88;3549090;27;20050;-48
2021/04/09 06:05:06;;;;;;;43.25;18.92;;;;;;;2.76;79.36;100276.47;3551323;27;20047;-49
2021/04/09 06:06:47;;;;;;;36.00;18.27;;;;;;;2.89;79.40;100276.34;3553185;27;20152;-58
2021/04/09 06:08:29;;;;;;;34.97;18.60;;;;;;;2.96;78.38;100273.31;3551980;27;20054;-48
2021/04/09 06:10:11;;;;;;;40.75;19.48;;;;;;;3.05;78.21;100280.59;3553403;27;20441;-47
2021/04/09 06:11:52;;;;;;;28.55;14.15;;;;;;;3.16;78.57;100279.47;3549722;27;20046;-48
2021/04/09 06:13:34;;;;;;;31.88;17.50;;;;;;;3.21;77.41;100278.03;3551682;27;20058;-48
2021/04/09 06:15:15;;;;;;;32.28;16.83;;;;;;;3.30;77.89;100281.91;3548892;27;20043;-48
2021/04/09 06:16:57;;;;;;;35.25;17.23;;;;;;;3.41;78.04;100281.66;3551055;27;20095;-47
2021/04/09 06:18:38;;;;;;;27.23;16.40;;;;;;;3.54;77.29;100277.16;3551632;27;20050;-50
2021/04/09 06:20:19;;;;;;;30.95;15.38;;;;;;;3.62;76.04;100281.00;3551986;27;20483;-48
2021/04/09 06:22:01;;;;;;;32.95;16.92;;;;;;;3.76;77.20;100279.16;3538999;28;20047;-48
2021/04/09 06:23:43;;;;;;;29.33;15.25;;;;;;;3.85;76.17;100280.47;3548057;27;20053;-47
2021/04/09 06:25:25;;;;;;;27.75;15.13;;;;;;;3.94;75.42;100280.06;3553142;27;20062;-47
2021/04/09 06:27:07;;;;;;;32.55;16.15;;;;;;;4.04;75.13;100282.28;3550828;27;20499;-50
2021/04/09 06:28:49;;;;;;;32.05;15.88;;;;;;;4.10;75.43;100283.41;3551525;27;20114;-57
2021/04/09 06:30:30;;;;;;;28.13;15.10;;;;;;;4.18;74.88;100289.78;3551642;27;20043;-57
2021/04/09 06:32:12;;;;;;;31.65;17.15;;;;;;;4.22;74.68;100292.56;3549380;27;20047;-57
2021/04/09 06:33:53;;;;;;;29.17;15.82;;;;;;;4.28;74.02;100289.41;3538916;28;20095;-57
2021/04/09 06:35:35;;;;;;;28.52;15.00;;;;;;;4.25;73.84;100298.66;3545757;27;20072;-58
2021/04/09 06:37:16;;;;;;;31.85;16.88;;;;;;;4.19;73.92;100297.59;3552841;27;20146;-58
2021/04/09 06:38:58;;;;;;;31.38;15.98;;;;;;;4.22;74.33;100291.69;3549599;27;20050;-57
2021/04/09 06:40:41;;;;;;;28.92;16.25;;;;;;;4.34;73.94;100294.88;3550966;27;20047;-58
2021/04/09 06:42:22;;;;;;;32.92;16.70;;;;;;;4.48;74.40;100290.41;3551492;27;20046;-49
2021/04/09 06:44:05;;;;;;;28.27;14.68;;;;;;;4.64;73.16;100292.00;3549677;27;20054;-48
2021/04/09 06:45:47;;;;;;;30.58;17.20;;;;;;;4.76;73.05;100291.72;3538572;28;20115;-49
2021/04/09 06:47:28;;;;;;;31.25;16.80;;;;;;;4.81;72.42;100287.63;3547091;27;20038;-58
2021/04/09 06:49:11;;;;;;;28.02;15.13;;;;;;;4.95;72.37;100293.44;3553042;27;20046;-58
2021/04/09 06:50:52;;;;;;;33.08;17.17;;;;;;;5.03;71.74;100298.94;3549714;27;20051;-58
2021/04/09 06:52:34;;;;;;;33.97;17.30;;;;;;;5.13;70.52;100304.56;3550629;27;20055;-58
2021/04/09 06:54:17;;;;;;;29.85;16.00;;;;;;;5.31;71.73;100296.81;3551485;27;20043;-58
2021/04/09 06:56:00;;;;;;;34.22;17.52;;;;;;;5.54;70.85;100299.53;3549461;27;20432;-49
2021/04/09 06:57:42;;;;;;;32.30;16.80;;;;;;;5.67;69.16;100294.09;3552658;27;20107;-49
2021/04/09 06:59:29;;;;;;;35.00;18.90;;;;;;;5.73;69.64;100298.63;3549016;27;20095;-48
2021/04/09 07:01:11;;;;;;;37.05;19.00;;;;;;;5.81;69.45;100306.69;3552222;27;20054;-48
2021/04/09 07:02:52;;;;;;;29.73;16.85;;;;;;;5.83;68.28;100299.91;3549667;27;20046;-48
2021/04/09 07:04:34;;;;;;;32.17;16.98;;;;;;;5.95;68.59;100305.56;3549589;27;20134;-48
2021/04/09 07:06:17;;;;;;;31.35;16.88;;;;;;;6.05;68.41;100304.28;3552378;27;20103;-48
2021/04/09 07:08:00;;;;;;;36.92;18.27;;;;;;;6.07;67.72;100305.22;3549000;27;20476;-48
2021/04/09 07:09:43;;;;;;;30.00;17.42;;;;;;;6.17;67.91;100297.06;3552621;27;20466;-49
2021/04/09 07:11:27;;;;;;;36.70;17.90;;;;;;;6.22;66.72;100307.53;3549029;27;20608;-48
2021/04/09 07:13:11;;;;;;;31.05;16.88;;;;;;;6.34;67.99;100304.59;3550039;27;20051;-48
2021/04/09 07:14:54;;;;;;;24.35;13.93;;;;;;;6.41;67.13;100304.03;3550047;27;20434;-48
2021/04/09 07:16:36;;;;;;;34.55;17.55;;;;;;;6.41;65.80;100307.47;3549235;27;20046;-48
2021/04/09 07:18:18;;;;;;;33.03;15.73;;;;;;;6.50;67.92;100306.97;3552914;27;20058;-54
2021/04/09 07:20:13;;;;;;;30.38;16.95;;;;;;;6.64;65.00;100303.25;3548941;27;20063;-55
2021/04/09 07:22:01;;;;;;;27.73;15.77;;;;;;;6.83;64.68;100301.41;3552007;27;20053;-55
2021/04/09 07:23:42;;;;;;;26.85;14.75;;;;;;;6.97;64.80;100305.41;3552622;27;20051;-55
2021/04/09 07:25:26;;;;;;;25.95;14.70;;;;;;;7.08;65.26;100303.25;3549004;27;20043;-54
2021/04/09 07:27:08;;;;;;;30.00;15.63;;;;;;;7.14;64.36;100303.50;3552319;27;20086;-53
2021/04/09 07:28:49;;;;;;;28.17;15.75;;;;;;;7.31;63.10;100316.13;3548871;27;20073;-54
2021/04/09 07:30:32;;;;;;;24.88;14.48;;;;;;;7.47;61.38;100304.66;3552655;27;20054;-55
2021/04/09 07:32:25;;;;;;;24.67;13.60;;;;;;;7.55;58.77;100305.84;3548912;27;20050;-49
2021/04/09 07:34:07;;;;;;;26.83;15.02;;;;;;;7.50;59.24;100303.06;3549016;27;20043;-52
2021/04/09 07:35:52;;;;;;;26.00;14.13;;;;;;;7.48;60.62;100309.00;3553255;27;20095;-48
2021/04/09 07:37:49;;;;;;;27.10;15.18;;;;;;;7.61;61.14;100308.63;3548988;27;20043;-49
2021/04/09 07:39:32;;;;;;;24.52;14.35;;;;;;;7.78;60.93;100307.53;3552269;27;20051;-49
2021/04/09 07:41:17;;;;;;;24.52;15.27;;;;;;;8.07;64.20;100309.34;3548932;27;20078;-50
2021/04/09 07:43:00;;;;;;;26.35;13.18;;;;;;;8.25;58.62;100309.09;3550245;27;20121;-48
2021/04/09 07:44:42;;;;;;;23.02;12.30;;;;;;;8.35;56.82;100312.03;3552044;27;20065;-48
2021/04/09 07:46:27;;;;;;;25.10;13.15;;;;;;;8.36;56.63;100307.75;3549719;27;20047;-54
2021/04/09 07:48:09;;;;;;;25.83;14.60;;;;;;;8.47;58.90;100316.72;3552619;27;20057;-54
2021/04/09 07:49:59;;;;;;;25.42;14.30;;;;;;;8.45;57.56;100310.63;3548980;27;20050;-53
2021/04/09 07:51:40;;;;;;;21.00;12.27;;;;;;;8.46;57.94;100319.25;3551241;27;20081;-50